createdAt,value
2014-07-27T06:42:46.340Z,100823
2014-07-27T06:43:04.543Z,100811
2014-07-27T06:43:22.730Z,100806
2014-07-27T06:43:50.123Z,100814
2014-07-27T06:44:08.326Z,100811
2014-07-27T06:44:26.514Z,100811
2014-07-27T06:44:44.701Z,100803
2014-07-27T06:45:02.905Z,100812
2014-07-27T18:58:18.469Z,100767
2014-07-27T18:58:36.658Z,100773
2014-07-27T18:58:54.862Z,100773
2014-07-27T18:59:13.049Z,100776
2014-07-27T18:59:31.239Z,100770
2014-07-27T18:59:49.426Z,100764
2014-07-27T19:00:07.629Z,100770
2014-07-27T19:00:25.817Z,100764
2014-07-27T19:00:44.006Z,100764
2014-07-27T19:01:02.225Z,100767
2014-07-27T19:01:20.412Z,100764
2014-07-27T19:01:38.618Z,100773
2014-07-27T19:01:56.805Z,100761
2014-07-27T19:02:14.993Z,100776
2014-07-27T19:02:33.198Z,100773
2014-07-27T19:02:51.385Z,100773
2014-07-27T19:03:09.588Z,100770
2014-07-27T19:03:27.776Z,100770
2014-07-27T19:03:45.965Z,100764
2014-07-27T19:04:04.168Z,100776
2014-07-27T19:04:22.356Z,100770
2014-07-27T19:04:40.545Z,100767
2014-07-27T19:04:58.749Z,100776
2014-07-27T19:05:16.936Z,100773
2014-07-27T19:05:35.126Z,100779
2014-07-27T19:05:53.329Z,100776
2014-07-27T19:06:11.516Z,100767
2014-07-27T19:06:29.721Z,100767
2014-07-27T19:06:47.909Z,100776
2014-07-27T19:07:06.096Z,100770
2014-07-27T19:07:24.284Z,100762
2014-07-27T19:07:42.489Z,100770
2014-07-27T19:08:00.676Z,100767
2014-07-27T19:08:18.864Z,100773
2014-07-27T19:08:37.069Z,100770
2014-07-27T19:08:55.288Z,100770
2014-07-27T19:09:13.507Z,100770
2014-07-27T19:09:31.696Z,100773
2014-07-27T19:09:49.884Z,100767
2014-07-27T19:10:08.071Z,100767
2014-07-27T19:10:26.274Z,100768
2014-07-27T19:10:44.464Z,100770
2014-07-27T19:11:02.651Z,100765
2014-07-27T19:11:20.854Z,100765
2014-07-27T19:11:39.043Z,100765
2014-07-27T19:11:57.246Z,100762
2014-07-27T19:12:15.433Z,100773
2014-07-27T19:12:33.623Z,100765
2014-07-27T19:12:51.826Z,100770
2014-07-27T19:13:10.014Z,100770
2014-07-27T19:13:28.217Z,100770
2014-07-27T19:13:46.406Z,100782
2014-07-27T19:14:04.594Z,100771
2014-07-27T19:14:22.828Z,100773
2014-07-27T19:14:41.033Z,100768
2014-07-27T19:14:59.236Z,100768
2014-07-27T19:15:17.455Z,100768
2014-07-27T19:15:35.660Z,100771
2014-07-27T19:15:53.863Z,100762
2014-07-27T19:16:12.051Z,100771
2014-07-27T19:16:30.256Z,100768
2014-07-27T19:16:48.443Z,100771
2014-07-27T19:17:06.647Z,100776
2014-07-27T19:17:24.850Z,100765
2014-07-27T19:17:43.039Z,100771
2014-07-27T19:18:01.227Z,100771
2014-07-27T19:18:19.414Z,100782
2014-07-27T19:18:37.619Z,100771
2014-07-27T19:18:55.807Z,100762
2014-07-27T19:19:14.010Z,100771
2014-07-27T19:19:32.199Z,100776
2014-07-27T19:19:50.403Z,100773
2014-07-27T19:20:08.590Z,100768
2014-07-27T19:20:26.793Z,100771
2014-07-27T19:20:44.997Z,100771
2014-07-27T19:21:03.185Z,100774
2014-07-27T19:21:21.388Z,100771
2014-07-27T19:21:39.577Z,100776
2014-07-27T19:21:57.781Z,100768
2014-07-27T19:22:15.968Z,100776
2014-07-27T19:22:34.159Z,100771
2014-07-27T19:22:52.362Z,100776
2014-07-27T19:23:10.549Z,100774
2014-07-27T19:23:28.737Z,100782
2014-07-27T19:23:46.941Z,100779
2014-07-27T19:24:05.128Z,100774
2014-07-27T19:24:23.331Z,100776
2014-07-27T19:24:41.521Z,100776
2014-07-27T19:24:59.724Z,100774
2014-07-27T19:25:17.927Z,100776
2014-07-27T19:25:36.117Z,100782
2014-07-27T19:25:54.320Z,100776
2014-07-27T19:26:12.523Z,100774
2014-07-27T19:26:30.710Z,100776
2014-07-27T19:26:48.900Z,100774
2014-07-27T19:27:07.103Z,100776
2014-07-27T19:27:25.291Z,100776
2014-07-27T19:27:43.480Z,100779
2014-07-27T19:28:01.683Z,100779
2014-07-27T19:28:19.871Z,100771
2014-07-27T19:28:38.060Z,100776
2014-07-27T19:28:56.263Z,100776
2014-07-27T19:29:14.451Z,100779
2014-07-27T19:29:32.638Z,100785
2014-07-27T19:29:50.842Z,100782
2014-07-27T19:30:09.030Z,100779
